HOURLY OBS INDEX

036

Central West

BLACKALL AIRPORT

Site: 036034
Alt: 281.3m
165km SE of LONGREACH


  Time     Wind        Temp  DP   Baro     Rain since   Rain past  Vis(m), Cloud(base in m), Weather
  local        km/h                         9am  last   hr   10m    
Mon 08:00    S  7/  9   5.5  1.6  1023.1    0.0   0.0   0.0   0.0   ----- 
Mon 08:30    S  9/ 13   8.0  2.7  1023.4    0.0   0.0   0.0   0.0   ----- 
Mon 09:00    S 11/ 17  10.3  3.6  1023.4    0.0   0.0   0.0   0.0   ----- 
Mon 09:30    S 19/ 24  11.3  3.8  1023.9    0.0   0.0   0.0   0.0   ----- 
Mon 10:00    S 17/ 20  12.4  3.6  1023.8    0.0   0.0   0.0   0.0   ----- 
Mon 10:30    S 20/ 30  13.3  2.5  1023.6    0.0   0.0   0.0   0.0   ----- 
Mon 11:00    S 17/ 28  14.2  2.1  1023.4    0.0   0.0   0.0   0.0   ----- 
Mon 11:30    S 17/ 28  14.5  1.8  1023.0    0.0   0.0   0.0   0.0   ----- 
Mon 12:00    S 17/ 24  15.2  2.1  1022.6    0.0   0.0   0.0   0.0   ----- 
Mon 12:30    S 17/ 26  15.4  1.2  1022.2    0.0   0.0   0.0   0.0   ----- 
Mon 13:00  SSW 17/ 39  16.1 -0.6  1021.7    0.0   0.0   0.0   0.0   ----- 

LONGREACH AERO

Site: 036031
Alt: 192.2m
5km E of LONGREACH


  Time     Wind        Temp  DP   Baro     Rain since   Rain past  Vis(m), Cloud(base in m), Weather
  local        km/h                         9am  last   hr   10m    
Mon 08:00  SSW  9/ 13   6.4  0.9  1023.1    0.0   0.0   0.0   0.0   10000 
Mon 08:30    S 13/ 19   8.9  2.3  1023.6    0.0   0.0   0.0   0.0   10000 
Mon 09:00    S 17/ 20  11.3  3.6  1023.8    0.0   0.0   0.0   0.0   10000 
Mon 09:30  SSE 19/ 24  12.9  3.8  1024.0    0.0   0.0   0.0   0.0   10000 
Mon 10:00  SSE 22/ 28  14.3  3.7  1024.0    0.0   0.0   0.0   0.0   10000 
Mon 10:30    S 22/ 28  14.7  3.5  1023.9    0.0   0.0   0.0   0.0   10000 
Mon 11:00    S 22/ 30  15.5  3.3  1023.8    0.0   0.0   0.0   0.0   10000 
Mon 11:30    S 20/ 30  16.2  2.6  1023.3    0.0   0.0   0.0   0.0   10000 
Mon 12:00    S 20/ 30  16.9  2.5  1022.9    0.0   0.0   0.0   0.0   10000 
Mon 12:30    S 17/ 22  17.7  1.7  1022.2    0.0   0.0   0.0   0.0   10000 
Mon 13:00    S 19/ 32  17.8  1.3  1021.9    0.0   0.0   0.0   0.0   10000